TimeCST,TemperatureF,Dew PointF,Humidity,Sea Level PressureIn,VisibilityMPH,Wind Direction,Wind SpeedMPH,Gust SpeedMPH,PrecipitationIn,Events,Conditions,WindDirDegrees,DateUTC
12:15 AM,48.2,39.2,71,30.28,10.0,ENE,4.6,-,N/A,,Scattered Clouds,70,2013-11-06 06:15:00
12:35 AM,46.4,37.4,71,30.27,10.0,Calm,Calm,-,N/A,,Partly Cloudy,0,2013-11-06 06:35:00
12:55 AM,48.2,37.4,66,30.27,10.0,Calm,Calm,-,N/A,,Mostly Cloudy,0,2013-11-06 06:55:00
1:15 AM,48.2,39.2,71,30.26,10.0,ENE,3.5,-,N/A,,Mostly Cloudy,70,2013-11-06 07:15:00
1:35 AM,50.0,41.0,71,30.25,10.0,East,4.6,-,N/A,,Overcast,80,2013-11-06 07:35:00
1:55 AM,51.8,42.8,71,30.25,10.0,East,6.9,-,N/A,,Overcast,80,2013-11-06 07:55:00
2:15 AM,51.8,42.8,71,30.24,10.0,East,8.1,-,N/A,,Overcast,90,2013-11-06 08:15:00
2:35 AM,53.6,42.8,67,30.23,10.0,East,6.9,-,N/A,,Overcast,80,2013-11-06 08:35:00
2:55 AM,53.6,42.8,67,30.23,7.0,ENE,6.9,-,N/A,,Overcast,70,2013-11-06 08:55:00
3:15 AM,53.6,44.6,72,30.23,3.0,East,5.8,-,N/A,,Overcast,80,2013-11-06 09:15:00
3:35 AM,55.4,44.6,67,30.23,5.0,ENE,5.8,-,N/A,,Overcast,70,2013-11-06 09:35:00
3:55 AM,55.4,44.6,67,30.23,3.0,ENE,4.6,-,N/A,,Overcast,60,2013-11-06 09:55:00
4:15 AM,55.4,46.4,72,30.23,1.8,ENE,3.5,-,N/A,,Overcast,60,2013-11-06 10:15:00
4:35 AM,55.4,46.4,72,30.23,10.0,NE,3.5,-,N/A,,Overcast,40,2013-11-06 10:35:00
4:55 AM,55.4,46.4,72,30.23,9.0,NE,5.8,-,N/A,,Overcast,40,2013-11-06 10:55:00
5:15 AM,55.4,46.4,72,30.24,1.5,NE,4.6,-,N/A,,Overcast,40,2013-11-06 11:15:00
5:35 AM,55.4,48.2,77,30.24,4.0,NE,5.8,-,N/A,,Overcast,50,2013-11-06 11:35:00
5:55 AM,55.4,48.2,77,30.24,1.5,NE,5.8,-,N/A,,Overcast,50,2013-11-06 11:55:00
6:15 AM,55.4,48.2,77,30.24,1.2,ENE,5.8,-,N/A,,Overcast,60,2013-11-06 12:15:00
6:35 AM,55.4,50.0,82,30.24,5.0,ENE,5.8,-,N/A,,Overcast,60,2013-11-06 12:35:00
6:55 AM,55.4,50.0,82,30.25,10.0,ENE,6.9,-,N/A,,Overcast,60,2013-11-06 12:55:00
7:15 AM,57.2,50.0,77,30.25,10.0,ENE,8.1,-,N/A,,Overcast,60,2013-11-06 13:15:00
7:35 AM,57.2,50.0,77,30.25,10.0,ENE,6.9,-,N/A,,Overcast,60,2013-11-06 13:35:00
7:55 AM,57.2,50.0,77,30.25,10.0,East,6.9,-,N/A,,Overcast,80,2013-11-06 13:55:00
8:15 AM,57.2,51.8,82,30.25,10.0,ENE,6.9,-,N/A,,Overcast,60,2013-11-06 14:15:00
8:35 AM,59.0,51.8,77,30.25,10.0,NE,8.1,-,N/A,,Overcast,50,2013-11-06 14:35:00
8:55 AM,60.8,51.8,72,30.25,10.0,NE,6.9,-,N/A,,Overcast,50,2013-11-06 14:55:00
9:15 AM,60.8,51.8,72,30.25,10.0,ENE,8.1,-,N/A,,Overcast,60,2013-11-06 15:15:00
9:35 AM,62.6,51.8,68,30.25,10.0,NE,4.6,-,N/A,,Overcast,50,2013-11-06 15:35:00
9:55 AM,62.6,53.6,72,30.24,9.0,NE,4.6,-,N/A,,Overcast,40,2013-11-06 15:55:00
10:15 AM,64.4,53.6,68,30.24,10.0,ESE,6.9,-,N/A,,Overcast,120,2013-11-06 16:15:00
10:35 AM,66.2,53.6,64,30.23,10.0,East,6.9,-,N/A,,Overcast,90,2013-11-06 16:35:00
10:55 AM,66.2,53.6,64,30.22,10.0,East,8.1,-,N/A,,Overcast,100,2013-11-06 16:55:00
11:15 AM,69.8,53.6,56,30.21,10.0,ESE,10.4,-,N/A,,Overcast,110,2013-11-06 17:15:00
11:35 AM,68.0,53.6,60,30.20,10.0,SE,6.9,-,N/A,,Partly Cloudy,130,2013-11-06 17:35:00
11:55 AM,69.8,55.4,60,30.18,10.0,East,6.9,-,N/A,,Mostly Cloudy,90,2013-11-06 17:55:00
12:15 PM,71.6,55.4,57,30.17,9.0,East,6.9,-,N/A,,Overcast,100,2013-11-06 18:15:00
12:35 PM,71.6,55.4,57,30.16,9.0,SSE,8.1,-,N/A,,Mostly Cloudy,150,2013-11-06 18:35:00
12:55 PM,71.6,53.6,53,30.15,10.0,Calm,Calm,-,N/A,,Mostly Cloudy,0,2013-11-06 18:55:00
1:15 PM,71.6,53.6,53,30.15,10.0,ESE,4.6,-,N/A,,Overcast,120,2013-11-06 19:15:00
1:35 PM,71.6,55.4,57,30.14,10.0,SE,8.1,-,N/A,,Overcast,140,2013-11-06 19:35:00
1:55 PM,71.6,55.4,57,30.14,10.0,SSE,4.6,-,N/A,,Overcast,150,2013-11-06 19:55:00
2:15 PM,71.6,55.4,57,30.13,10.0,SE,9.2,-,N/A,,Mostly Cloudy,130,2013-11-06 20:15:00
2:35 PM,69.8,55.4,60,30.13,10.0,SSE,5.8,-,N/A,,Scattered Clouds,150,2013-11-06 20:35:00
2:55 PM,71.6,55.4,57,30.12,10.0,SE,8.1,-,N/A,,Overcast,140,2013-11-06 20:55:00
3:15 PM,71.6,55.4,57,30.12,10.0,SE,5.8,-,N/A,,Overcast,130,2013-11-06 21:15:00
3:35 PM,71.6,55.4,57,30.12,10.0,South,4.6,-,N/A,,Overcast,170,2013-11-06 21:35:00
3:55 PM,69.8,55.4,60,30.12,10.0,SSE,4.6,-,N/A,,Overcast,150,2013-11-06 21:55:00
4:15 PM,69.8,55.4,60,30.12,10.0,SSE,4.6,-,N/A,,Overcast,150,2013-11-06 22:15:00
4:35 PM,69.8,55.4,60,30.11,10.0,SSE,5.8,-,N/A,,Mostly Cloudy,150,2013-11-06 22:35:00
4:55 PM,68.0,55.4,64,30.11,10.0,Calm,Calm,-,N/A,,Mostly Cloudy,0,2013-11-06 22:55:00
5:15 PM,68.0,55.4,64,30.12,10.0,SSE,3.5,-,N/A,,Overcast,150,2013-11-06 23:15:00
5:35 PM,68.0,55.4,64,30.12,10.0,Calm,Calm,-,N/A,,Overcast,0,2013-11-06 23:35:00
5:55 PM,66.2,55.4,68,30.12,10.0,Calm,Calm,-,N/A,,Overcast,0,2013-11-06 23:55:00
6:15 PM,64.4,55.4,73,30.12,10.0,Calm,Calm,-,N/A,,Overcast,0,2013-11-07 00:15:00
6:35 PM,64.4,55.4,73,30.12,10.0,Calm,Calm,-,N/A,,Scattered Clouds,0,2013-11-07 00:35:00
6:55 PM,60.8,53.6,77,30.11,10.0,Calm,Calm,-,N/A,,Clear,0,2013-11-07 00:55:00
7:15 PM,59.0,53.6,82,30.11,10.0,South,3.5,-,N/A,,Clear,170,2013-11-07 01:15:00
7:35 PM,59.0,53.6,82,30.10,10.0,Calm,Calm,-,N/A,,Clear,0,2013-11-07 01:35:00
7:55 PM,59.0,53.6,82,30.10,10.0,Calm,Calm,-,N/A,,Clear,0,2013-11-07 01:55:00
8:15 PM,57.2,53.6,88,30.10,10.0,Calm,Calm,-,N/A,,Mostly Cloudy,0,2013-11-07 02:15:00
8:35 PM,60.8,55.4,82,30.10,10.0,Calm,Calm,-,N/A,,Overcast,0,2013-11-07 02:35:00
8:55 PM,60.8,55.4,82,30.10,10.0,Calm,Calm,-,N/A,,Overcast,0,2013-11-07 02:55:00
9:15 PM,60.8,55.4,82,30.10,10.0,Calm,Calm,-,N/A,,Overcast,0,2013-11-07 03:15:00
9:35 PM,62.6,55.4,77,30.10,10.0,Calm,Calm,-,N/A,,Overcast,0,2013-11-07 03:35:00
9:55 PM,62.6,55.4,77,30.10,10.0,Calm,Calm,-,N/A,,Overcast,0,2013-11-07 03:55:00
10:15 PM,62.6,55.4,77,30.09,10.0,Calm,Calm,-,N/A,,Mostly Cloudy,0,2013-11-07 04:15:00
10:35 PM,62.6,55.4,77,30.09,10.0,Calm,Calm,-,N/A,,Overcast,0,2013-11-07 04:35:00
10:55 PM,62.6,55.4,77,30.08,10.0,SSW,3.5,-,N/A,,Overcast,210,2013-11-07 04:55:00
11:15 PM,62.6,55.4,77,30.08,10.0,SW,3.5,-,N/A,,Overcast,230,2013-11-07 05:15:00
11:35 PM,62.6,57.2,82,30.08,10.0,Calm,Calm,-,N/A,,Overcast,0,2013-11-07 05:35:00
11:55 PM,62.6,57.2,82,30.07,10.0,Calm,Calm,-,N/A,,Overcast,0,2013-11-07 05:55:00